PWSweather.com
Personal Weather Stations
Station Observations

ChardChardGB

Lat: 50.877408, Lon: -2.94964741

Elevation: 341

Station Type: WS3083

http://www.merriott-astro.co.uk/weather/index.htm

High Low Average
Temperature 60.3°F15.7°C 51.8°F11.0°C 58.5°F14.7°C
Dew Point 58.5°F14.7°C 45.8°F7.7°C 54.6°F12.6°C
Winds 15.7 mph 25.3 kmh Calm Calm 9.0 mph SW14.5 kmh SW
Wind Gusts 18.3 mph29.5 kmh -- 11.0 mph17.7 kmh
Humidity 95% 66% 87%
Pressure 29.74 in1007.1 mb 29.49 in998.6 mb -
Precipitation 0.01 in0.3 mm - -
Hour Temp Dew Point Humidity Winds Wind Gusts Pressure Precip Precip Rate Daily Precip Total
12:00 AM 57.9°F14.4°C 52.5°F11.4°C 82% 8.1 mph SW13.0 kmh SW 12.1 mph19.5 kmh 29.62 in1003.0 mb 0.00 in0.0 mm 0.00 in0.0 mm 0.00 in0.0 mm
12:10 AM 57.9°F14.4°C 52.8°F11.6°C 83% 6.6 mph S10.6 kmh S 12.1 mph19.5 kmh 29.62 in1003.0 mb 0.00 in0.0 mm 0.00 in0.0 mm 0.00 in0.0 mm
12:20 AM 57.7°F14.3°C 52.6°F11.4°C 83% 8.7 mph SSW14.0 kmh SSW 12.1 mph19.5 kmh 29.62 in1003.0 mb 0.00 in0.0 mm 0.00 in0.0 mm 0.00 in0.0 mm
12:30 AM 57.7°F14.3°C 52.9°F11.6°C 84% 8.7 mph SSW14.0 kmh SSW 13.0 mph20.9 kmh 29.61 in1002.7 mb 0.00 in0.0 mm 0.00 in0.0 mm 0.00 in0.0 mm
12:40 AM 57.7°F14.3°C 53.3°F11.8°C 85% 10.6 mph S17.1 kmh S 15.2 mph24.5 kmh 29.60 in1002.4 mb 0.00 in0.0 mm 0.00 in0.0 mm 0.00 in0.0 mm
12:50 AM 57.7°F14.3°C 53.3°F11.8°C 85% 8.7 mph S14.0 kmh S 13.0 mph20.9 kmh 29.60 in1002.4 mb 0.00 in0.0 mm 0.00 in0.0 mm 0.00 in0.0 mm
01:00 AM 57.7°F14.3°C 52.6°F11.4°C 83% 11.5 mph SSW18.5 kmh SSW 17.4 mph28.0 kmh 29.59 in1002.0 mb 0.00 in0.0 mm 0.00 in0.0 mm 0.00 in0.0 mm
01:10 AM 57.7°F14.3°C 52.6°F11.4°C 83% 10.5 mph SSW16.9 kmh SSW 15.9 mph25.6 kmh 29.59 in1002.0 mb 0.00 in0.0 mm 0.00 in0.0 mm 0.00 in0.0 mm
01:20 AM 57.9°F14.4°C 52.5°F11.4°C 82% 10.4 mph SSW16.7 kmh SSW 16.8 mph27.0 kmh 29.59 in1002.0 mb 0.00 in0.0 mm 0.00 in0.0 mm 0.00 in0.0 mm
01:30 AM 57.9°F14.4°C 52.5°F11.4°C 82% 9.3 mph S15.0 kmh S 13.6 mph21.9 kmh 29.59 in1002.0 mb 0.00 in0.0 mm 0.00 in0.0 mm 0.00 in0.0 mm
01:40 AM 57.9°F14.4°C 52.5°F11.4°C 82% 9.4 mph S15.1 kmh S 12.1 mph19.5 kmh 29.58 in1001.7 mb 0.00 in0.0 mm 0.00 in0.0 mm 0.00 in0.0 mm
01:50 AM 57.9°F14.4°C 52.5°F11.4°C 82% 8.3 mph S13.4 kmh S 11.4 mph18.3 kmh 29.57 in1001.4 mb 0.00 in0.0 mm 0.00 in0.0 mm 0.00 in0.0 mm
02:00 AM 57.9°F14.4°C 52.5°F11.4°C 82% 9.3 mph SW15.0 kmh SW 18.3 mph29.5 kmh 29.57 in1001.4 mb 0.00 in0.0 mm 0.00 in0.0 mm 0.00 in0.0 mm
02:10 AM 57.9°F14.4°C 52.1°F11.2°C 81% 9.3 mph SSW15.0 kmh SSW 16.8 mph27.0 kmh 29.57 in1001.4 mb 0.00 in0.0 mm 0.00 in0.0 mm 0.00 in0.0 mm
02:20 AM 58.1°F14.5°C 52.3°F11.3°C 81% 11.8 mph SSW19.0 kmh SSW 15.2 mph24.5 kmh 29.57 in1001.4 mb 0.00 in0.0 mm 0.00 in0.0 mm 0.00 in0.0 mm
02:30 AM 58.1°F14.5°C 52.3°F11.3°C 81% 10.9 mph SW17.5 kmh SW 15.2 mph24.5 kmh 29.56 in1001.0 mb 0.00 in0.0 mm 0.00 in0.0 mm 0.00 in0.0 mm
02:40 AM 58.1°F14.5°C 52.6°F11.4°C 82% 11.1 mph SSW17.9 kmh SSW 13.6 mph21.9 kmh 29.56 in1001.0 mb 0.00 in0.0 mm 0.00 in0.0 mm 0.00 in0.0 mm
02:50 AM 58.1°F14.5°C 52.6°F11.4°C 82% 9.5 mph SW15.3 kmh SW 14.5 mph23.3 kmh 29.56 in1001.0 mb 0.00 in0.0 mm 0.00 in0.0 mm 0.00 in0.0 mm
03:00 AM 58.1°F14.5°C 52.6°F11.4°C 82% 9.2 mph SW14.8 kmh SW 13.6 mph21.9 kmh 29.56 in1001.0 mb 0.00 in0.0 mm 0.00 in0.0 mm 0.00 in0.0 mm
03:10 AM 58.1°F14.5°C 52.6°F11.4°C 82% 10.3 mph S16.6 kmh S 13.0 mph20.9 kmh 29.55 in1000.7 mb 0.00 in0.0 mm 0.00 in0.0 mm 0.00 in0.0 mm
03:20 AM 58.1°F14.5°C 53.0°F11.7°C 83% 10.8 mph SSW17.4 kmh SSW 15.2 mph24.5 kmh 29.55 in1000.7 mb 0.00 in0.0 mm 0.00 in0.0 mm 0.00 in0.0 mm
03:30 AM 57.9°F14.4°C 52.8°F11.6°C 83% 12.3 mph S19.8 kmh S 15.9 mph25.6 kmh 29.55 in1000.7 mb 0.00 in0.0 mm 0.00 in0.0 mm 0.00 in0.0 mm
03:40 AM 57.9°F14.4°C 52.8°F11.6°C 83% 15.7 mph S25.3 kmh S 15.9 mph25.6 kmh 29.53 in1000.0 mb 0.00 in0.0 mm 0.00 in0.0 mm 0.00 in0.0 mm
03:50 AM 57.9°F14.4°C 52.8°F11.6°C 83% 15.7 mph S25.3 kmh S 15.9 mph25.6 kmh 29.53 in1000.0 mb 0.00 in0.0 mm 0.00 in0.0 mm 0.00 in0.0 mm
04:00 AM 57.9°F14.4°C 52.8°F11.6°C 83% 15.7 mph S25.3 kmh S 15.9 mph25.6 kmh 29.52 in999.7 mb 0.00 in0.0 mm 0.00 in0.0 mm 0.00 in0.0 mm
04:10 AM 57.9°F14.4°C 52.8°F11.6°C 83% 15.7 mph S25.3 kmh S 15.9 mph25.6 kmh 29.52 in999.7 mb 0.00 in0.0 mm 0.00 in0.0 mm 0.00 in0.0 mm
04:20 AM 57.9°F14.4°C 52.8°F11.6°C 83% 15.7 mph S25.3 kmh S 15.9 mph25.6 kmh 29.51 in999.3 mb 0.00 in0.0 mm 0.00 in0.0 mm 0.00 in0.0 mm
04:30 AM 57.9°F14.4°C 52.8°F11.6°C 83% 15.7 mph S25.3 kmh S 15.9 mph25.6 kmh 29.52 in999.7 mb 0.00 in0.0 mm 0.00 in0.0 mm 0.00 in0.0 mm
04:40 AM 57.9°F14.4°C 52.8°F11.6°C 83% 15.7 mph S25.3 kmh S 15.9 mph25.6 kmh 29.52 in999.7 mb 0.00 in0.0 mm 0.00 in0.0 mm 0.00 in0.0 mm
04:50 AM 57.9°F14.4°C 52.8°F11.6°C 83% 15.7 mph S25.3 kmh S 15.9 mph25.6 kmh 29.52 in999.7 mb 0.00 in0.0 mm 0.00 in0.0 mm 0.00 in0.0 mm
05:00 AM 57.9°F14.4°C 52.8°F11.6°C 83% 15.7 mph S25.3 kmh S 15.9 mph25.6 kmh 29.52 in999.7 mb 0.00 in0.0 mm 0.00 in0.0 mm 0.00 in0.0 mm
05:10 AM 57.9°F14.4°C 52.8°F11.6°C 83% 15.7 mph S25.3 kmh S 15.9 mph25.6 kmh 29.51 in999.3 mb 0.00 in0.0 mm 0.00 in0.0 mm 0.00 in0.0 mm
05:20 AM 57.9°F14.4°C 52.8°F11.6°C 83% 15.7 mph S25.3 kmh S 15.9 mph25.6 kmh 29.52 in999.7 mb 0.00 in0.0 mm 0.00 in0.0 mm 0.00 in0.0 mm
05:30 AM 57.9°F14.4°C 52.8°F11.6°C 83% 15.7 mph S25.3 kmh S 15.9 mph25.6 kmh 29.52 in999.7 mb 0.00 in0.0 mm 0.00 in0.0 mm 0.00 in0.0 mm
05:40 AM 57.9°F14.4°C 52.8°F11.6°C 83% 15.7 mph S25.3 kmh S 15.9 mph25.6 kmh 29.51 in999.3 mb 0.00 in0.0 mm 0.00 in0.0 mm 0.00 in0.0 mm
05:50 AM 57.9°F14.4°C 52.8°F11.6°C 83% 15.7 mph S25.3 kmh S 15.9 mph25.6 kmh 29.51 in999.3 mb 0.00 in0.0 mm 0.00 in0.0 mm 0.00 in0.0 mm
06:00 AM 57.9°F14.4°C 52.8°F11.6°C 83% 15.7 mph S25.3 kmh S 15.9 mph25.6 kmh 29.51 in999.3 mb 0.00 in0.0 mm 0.00 in0.0 mm 0.00 in0.0 mm
06:10 AM 58.3°F14.6°C 56.9°F13.8°C 95% 10.5 mph SW16.9 kmh SW 13.0 mph20.9 kmh 29.50 in999.0 mb 0.00 in0.0 mm 0.00 in0.0 mm 0.00 in0.0 mm
06:20 AM 58.6°F14.8°C 57.2°F14.0°C 95% 10.1 mph SW16.3 kmh SW 15.2 mph24.5 kmh 29.50 in999.0 mb 0.00 in0.0 mm 0.00 in0.0 mm 0.00 in0.0 mm
06:30 AM 58.6°F14.8°C 57.2°F14.0°C 95% 10.2 mph SW16.4 kmh SW 15.2 mph24.5 kmh 29.50 in999.0 mb 0.00 in0.0 mm 0.00 in0.0 mm 0.00 in0.0 mm
06:40 AM 58.6°F14.8°C 57.2°F14.0°C 95% 11.2 mph SSW18.0 kmh SSW 13.6 mph21.9 kmh 29.49 in998.6 mb 0.00 in0.0 mm 0.00 in0.0 mm 0.00 in0.0 mm
06:50 AM 59.5°F15.3°C 58.1°F14.5°C 95% 10.9 mph SSW17.5 kmh SSW 15.9 mph25.6 kmh 29.50 in999.0 mb 0.00 in0.0 mm 0.00 in0.0 mm 0.00 in0.0 mm
07:00 AM 60.3°F15.7°C 58.5°F14.7°C 94% 8.9 mph SW14.3 kmh SW 12.1 mph19.5 kmh 29.50 in999.0 mb 0.00 in0.0 mm 0.00 in0.0 mm 0.00 in0.0 mm
07:10 AM 60.3°F15.7°C 58.5°F14.7°C 94% 9.0 mph SW14.5 kmh SW 9.2 mph14.8 kmh 29.49 in998.6 mb 0.00 in0.0 mm 0.00 in0.0 mm 0.00 in0.0 mm
07:20 AM 60.3°F15.7°C 58.5°F14.7°C 94% 9.2 mph SW14.8 kmh SW 9.2 mph14.8 kmh 29.49 in998.6 mb 0.00 in0.0 mm 0.00 in0.0 mm 0.00 in0.0 mm
07:30 AM 60.3°F15.7°C 58.5°F14.7°C 94% 9.2 mph SW14.8 kmh SW 9.2 mph14.8 kmh 29.51 in999.3 mb 0.00 in0.0 mm 0.00 in0.0 mm 0.00 in0.0 mm
07:40 AM 60.3°F15.7°C 58.5°F14.7°C 94% 9.2 mph SW14.8 kmh SW 9.2 mph14.8 kmh 29.51 in999.3 mb 0.00 in0.0 mm 0.00 in0.0 mm 0.00 in0.0 mm
07:50 AM 60.3°F15.7°C 58.5°F14.7°C 94% 9.2 mph SW14.8 kmh SW 9.2 mph14.8 kmh 29.52 in999.7 mb 0.00 in0.0 mm 0.00 in0.0 mm 0.00 in0.0 mm
08:00 AM 60.3°F15.7°C 58.5°F14.7°C 94% 9.2 mph SW14.8 kmh SW 9.2 mph14.8 kmh 29.52 in999.7 mb 0.00 in0.0 mm 0.00 in0.0 mm 0.00 in0.0 mm
08:10 AM 60.3°F15.7°C 58.5°F14.7°C 94% 9.2 mph SW14.8 kmh SW 9.2 mph14.8 kmh 29.52 in999.7 mb 0.00 in0.0 mm 0.00 in0.0 mm 0.00 in0.0 mm
08:20 AM 60.3°F15.7°C 58.5°F14.7°C 94% 9.2 mph SW14.8 kmh SW 9.2 mph14.8 kmh 29.53 in1000.0 mb 0.00 in0.0 mm 0.00 in0.0 mm 0.00 in0.0 mm
08:30 AM 60.3°F15.7°C 58.5°F14.7°C 94% 9.2 mph SW14.8 kmh SW 9.2 mph14.8 kmh 29.53 in1000.0 mb 0.00 in0.0 mm 0.00 in0.0 mm 0.00 in0.0 mm
08:40 AM 60.3°F15.7°C 58.5°F14.7°C 94% 9.2 mph SW14.8 kmh SW 9.2 mph14.8 kmh 29.53 in1000.0 mb 0.00 in0.0 mm 0.00 in0.0 mm 0.00 in0.0 mm
08:50 AM 60.3°F15.7°C 58.5°F14.7°C 94% 9.2 mph SW14.8 kmh SW 9.2 mph14.8 kmh 29.55 in1000.7 mb 0.00 in0.0 mm 0.00 in0.0 mm 0.00 in0.0 mm
09:00 AM 60.3°F15.7°C 58.5°F14.7°C 94% 9.2 mph SW14.8 kmh SW 9.2 mph14.8 kmh 29.54 in1000.3 mb 0.00 in0.0 mm 0.00 in0.0 mm 0.00 in0.0 mm
09:10 AM 60.3°F15.7°C 58.5°F14.7°C 94% 9.2 mph SW14.8 kmh SW 9.2 mph14.8 kmh 29.54 in1000.3 mb 0.00 in0.0 mm 0.00 in0.0 mm 0.00 in0.0 mm
09:20 AM 60.3°F15.7°C 58.5°F14.7°C 94% 9.2 mph SW14.8 kmh SW 9.2 mph14.8 kmh 29.55 in1000.7 mb 0.00 in0.0 mm 0.00 in0.0 mm 0.00 in0.0 mm
09:30 AM 60.3°F15.7°C 58.5°F14.7°C 94% 9.2 mph SW14.8 kmh SW 9.2 mph14.8 kmh 29.56 in1001.0 mb 0.00 in0.0 mm 0.00 in0.0 mm 0.00 in0.0 mm
09:40 AM 60.3°F15.7°C 58.5°F14.7°C 94% 9.2 mph SW14.8 kmh SW 9.2 mph14.8 kmh 29.56 in1001.0 mb 0.00 in0.0 mm 0.00 in0.0 mm 0.00 in0.0 mm
09:50 AM 60.3°F15.7°C 58.5°F14.7°C 94% 9.2 mph SW14.8 kmh SW 9.2 mph14.8 kmh 29.55 in1000.7 mb 0.00 in0.0 mm 0.00 in0.0 mm 0.00 in0.0 mm
10:00 AM 60.3°F15.7°C 58.5°F14.7°C 94% 9.2 mph SW14.8 kmh SW 9.2 mph14.8 kmh 29.57 in1001.4 mb 0.00 in0.0 mm 0.00 in0.0 mm 0.00 in0.0 mm
10:10 AM 60.3°F15.7°C 58.5°F14.7°C 94% 9.2 mph SW14.8 kmh SW 9.2 mph14.8 kmh 29.57 in1001.4 mb 0.00 in0.0 mm 0.00 in0.0 mm 0.00 in0.0 mm
10:20 AM 60.3°F15.7°C 58.5°F14.7°C 94% 9.2 mph SW14.8 kmh SW 9.2 mph14.8 kmh 29.57 in1001.4 mb 0.00 in0.0 mm 0.00 in0.0 mm 0.00 in0.0 mm
10:30 AM 60.3°F15.7°C 58.5°F14.7°C 94% 9.2 mph SW14.8 kmh SW 9.2 mph14.8 kmh 29.58 in1001.7 mb 0.00 in0.0 mm 0.00 in0.0 mm 0.00 in0.0 mm
10:40 AM 60.3°F15.7°C 58.5°F14.7°C 94% 9.2 mph SW14.8 kmh SW 9.2 mph14.8 kmh 29.59 in1002.0 mb 0.00 in0.0 mm 0.00 in0.0 mm 0.00 in0.0 mm
10:50 AM 60.3°F15.7°C 58.5°F14.7°C 94% 9.2 mph SW14.8 kmh SW 9.2 mph14.8 kmh 29.58 in1001.7 mb 0.00 in0.0 mm 0.00 in0.0 mm 0.00 in0.0 mm
11:00 AM 60.3°F15.7°C 58.5°F14.7°C 94% 9.2 mph SW14.8 kmh SW 9.2 mph14.8 kmh 29.59 in1002.0 mb 0.00 in0.0 mm 0.00 in0.0 mm 0.00 in0.0 mm
11:10 AM 60.3°F15.7°C 58.5°F14.7°C 94% 9.2 mph SW14.8 kmh SW 9.2 mph14.8 kmh 29.59 in1002.0 mb 0.00 in0.0 mm 0.00 in0.0 mm 0.00 in0.0 mm
11:20 AM 60.3°F15.7°C 58.5°F14.7°C 94% 9.2 mph SW14.8 kmh SW 9.2 mph14.8 kmh 29.60 in1002.4 mb 0.00 in0.0 mm 0.00 in0.0 mm 0.00 in0.0 mm
11:30 AM 60.3°F15.7°C 58.5°F14.7°C 94% 9.2 mph SW14.8 kmh SW 9.2 mph14.8 kmh 29.60 in1002.4 mb 0.00 in0.0 mm 0.00 in0.0 mm 0.00 in0.0 mm
11:40 AM 60.3°F15.7°C 58.5°F14.7°C 94% 9.2 mph SW14.8 kmh SW 9.2 mph14.8 kmh 29.60 in1002.4 mb 0.00 in0.0 mm 0.00 in0.0 mm 0.00 in0.0 mm
11:50 AM 60.3°F15.7°C 58.5°F14.7°C 94% 9.2 mph SW14.8 kmh SW 9.2 mph14.8 kmh 29.61 in1002.7 mb 0.00 in0.0 mm 0.00 in0.0 mm 0.00 in0.0 mm
12:00 PM 60.3°F15.7°C 58.5°F14.7°C 94% 9.2 mph SW14.8 kmh SW 9.2 mph14.8 kmh 29.61 in1002.7 mb 0.00 in0.0 mm 0.00 in0.0 mm 0.00 in0.0 mm
12:10 PM 60.3°F15.7°C 58.5°F14.7°C 94% 9.2 mph SW14.8 kmh SW 9.2 mph14.8 kmh 29.61 in1002.7 mb 0.00 in0.0 mm 0.00 in0.0 mm 0.00 in0.0 mm
12:20 PM 60.3°F15.7°C 58.5°F14.7°C 94% 9.2 mph SW14.8 kmh SW 9.2 mph14.8 kmh 29.61 in1002.7 mb 0.00 in0.0 mm 0.00 in0.0 mm 0.00 in0.0 mm
12:30 PM 60.3°F15.7°C 58.5°F14.7°C 94% 9.2 mph SW14.8 kmh SW 9.2 mph14.8 kmh 29.60 in1002.4 mb 0.00 in0.0 mm 0.00 in0.0 mm 0.00 in0.0 mm
12:40 PM 60.3°F15.7°C 58.5°F14.7°C 94% 9.2 mph SW14.8 kmh SW 9.2 mph14.8 kmh 29.61 in1002.7 mb 0.00 in0.0 mm 0.00 in0.0 mm 0.00 in0.0 mm
12:50 PM 60.3°F15.7°C 58.5°F14.7°C 94% 9.2 mph SW14.8 kmh SW 9.2 mph14.8 kmh 29.61 in1002.7 mb 0.00 in0.0 mm 0.00 in0.0 mm 0.00 in0.0 mm
01:00 PM 60.3°F15.7°C 58.5°F14.7°C 94% 9.2 mph SW14.8 kmh SW 9.2 mph14.8 kmh 29.61 in1002.7 mb 0.00 in0.0 mm 0.00 in0.0 mm 0.00 in0.0 mm
01:10 PM 60.3°F15.7°C 58.5°F14.7°C 94% 9.2 mph SW14.8 kmh SW 9.2 mph14.8 kmh 29.61 in1002.7 mb 0.00 in0.0 mm 0.00 in0.0 mm 0.00 in0.0 mm
01:20 PM 60.3°F15.7°C 58.5°F14.7°C 94% 9.2 mph SW14.8 kmh SW 9.2 mph14.8 kmh 29.62 in1003.0 mb 0.00 in0.0 mm 0.00 in0.0 mm 0.00 in0.0 mm
01:30 PM 60.3°F15.7°C 58.5°F14.7°C 94% 9.2 mph SW14.8 kmh SW 9.2 mph14.8 kmh 29.62 in1003.0 mb 0.00 in0.0 mm 0.00 in0.0 mm 0.00 in0.0 mm
01:40 PM 60.3°F15.7°C 58.5°F14.7°C 94% 9.2 mph SW14.8 kmh SW 9.2 mph14.8 kmh 29.63 in1003.4 mb 0.00 in0.0 mm 0.00 in0.0 mm 0.00 in0.0 mm
01:50 PM 60.3°F15.7°C 58.5°F14.7°C 94% 9.2 mph SW14.8 kmh SW 9.2 mph14.8 kmh 29.63 in1003.4 mb 0.00 in0.0 mm 0.00 in0.0 mm 0.00 in0.0 mm
02:00 PM 60.3°F15.7°C 58.5°F14.7°C 94% 9.2 mph SW14.8 kmh SW 9.2 mph14.8 kmh 29.64 in1003.7 mb 0.00 in0.0 mm 0.00 in0.0 mm 0.00 in0.0 mm
02:10 PM 60.3°F15.7°C 58.5°F14.7°C 94% 9.2 mph SW14.8 kmh SW 9.2 mph14.8 kmh 29.63 in1003.4 mb 0.00 in0.0 mm 0.00 in0.0 mm 0.00 in0.0 mm
02:20 PM 60.3°F15.7°C 58.5°F14.7°C 94% 9.2 mph SW14.8 kmh SW 9.2 mph14.8 kmh 29.63 in1003.4 mb 0.00 in0.0 mm 0.00 in0.0 mm 0.00 in0.0 mm
02:30 PM 60.3°F15.7°C 58.5°F14.7°C 94% 9.2 mph SW14.8 kmh SW 9.2 mph14.8 kmh 29.63 in1003.4 mb 0.00 in0.0 mm 0.00 in0.0 mm 0.00 in0.0 mm
02:40 PM 60.3°F15.7°C 58.5°F14.7°C 94% 9.2 mph SW14.8 kmh SW 9.2 mph14.8 kmh 29.64 in1003.7 mb 0.00 in0.0 mm 0.00 in0.0 mm 0.00 in0.0 mm
02:50 PM 60.3°F15.7°C 58.5°F14.7°C 94% 9.2 mph SW14.8 kmh SW 9.2 mph14.8 kmh 29.64 in1003.7 mb 0.00 in0.0 mm 0.00 in0.0 mm 0.00 in0.0 mm
09:10 PM 57.0°F13.9°C 45.8°F7.7°C 66% 3.1 mph NW5.0 kmh NW 4.5 mph7.2 kmh 29.73 in1006.8 mb 0.00 in0.0 mm 0.00 in0.0 mm 0.01 in0.3 mm
09:20 PM 56.8°F13.8°C 46.4°F8.0°C 68% 3.9 mph NW6.3 kmh NW 6.0 mph9.7 kmh 29.73 in1006.8 mb 0.00 in0.0 mm 0.00 in0.0 mm 0.01 in0.3 mm
09:30 PM 56.7°F13.7°C 47.0°F8.3°C 70% 4.5 mph NW7.2 kmh NW 6.9 mph11.1 kmh 29.74 in1007.1 mb 0.00 in0.0 mm 0.00 in0.0 mm 0.01 in0.3 mm
09:40 PM 56.5°F13.6°C 47.2°F8.4°C 71% 6.0 mph WNW9.7 kmh WNW 8.3 mph13.4 kmh 29.73 in1006.8 mb 0.00 in0.0 mm 0.00 in0.0 mm 0.01 in0.3 mm
09:50 PM 56.3°F13.5°C 47.4°F8.6°C 72% 7.4 mph NW11.9 kmh NW 9.8 mph15.8 kmh 29.74 in1007.1 mb 0.00 in0.0 mm 0.00 in0.0 mm 0.01 in0.3 mm
10:00 PM 56.1°F13.4°C 47.2°F8.4°C 72% 6.2 mph NW10.0 kmh NW 9.8 mph15.8 kmh 29.73 in1006.8 mb 0.00 in0.0 mm 0.00 in0.0 mm 0.01 in0.3 mm
10:10 PM 55.9°F13.3°C 47.1°F8.4°C 72% 7.1 mph NW11.4 kmh NW 9.2 mph14.8 kmh 29.73 in1006.8 mb 0.00 in0.0 mm 0.00 in0.0 mm 0.01 in0.3 mm
10:20 PM 55.8°F13.2°C 47.2°F8.4°C 73% 6.2 mph NW10.0 kmh NW 8.3 mph13.4 kmh 29.73 in1006.8 mb 0.00 in0.0 mm 0.00 in0.0 mm 0.01 in0.3 mm
10:30 PM 55.4°F13.0°C 46.9°F8.3°C 73% 5.8 mph NW9.3 kmh NW 7.6 mph12.2 kmh 29.74 in1007.1 mb 0.00 in0.0 mm 0.00 in0.0 mm 0.01 in0.3 mm
10:40 PM 55.2°F12.9°C 47.1°F8.4°C 74% 5.0 mph NW8.0 kmh NW 7.6 mph12.2 kmh 29.74 in1007.1 mb 0.00 in0.0 mm 0.00 in0.0 mm 0.01 in0.3 mm
10:50 PM 54.5°F12.5°C 46.4°F8.0°C 74% 1.6 mph NNW2.6 kmh NNW 3.8 mph6.1 kmh 29.74 in1007.1 mb 0.00 in0.0 mm 0.00 in0.0 mm 0.01 in0.3 mm
11:00 PM 53.8°F12.1°C 47.1°F8.4°C 78% 0.9 mph E1.4 kmh E 3.1 mph5.0 kmh 29.74 in1007.1 mb 0.00 in0.0 mm 0.00 in0.0 mm 0.01 in0.3 mm
11:10 PM 53.2°F11.8°C 46.9°F8.3°C 79% Calm Calm -- 29.74 in1007.1 mb 0.00 in0.0 mm 0.00 in0.0 mm 0.01 in0.3 mm
11:20 PM 52.7°F11.5°C 46.7°F8.2°C 80% 0.2 mph N0.3 kmh N 1.6 mph2.6 kmh 29.74 in1007.1 mb 0.00 in0.0 mm 0.00 in0.0 mm 0.01 in0.3 mm
11:30 PM 52.5°F11.4°C 46.9°F8.3°C 81% Calm Calm -- 29.74 in1007.1 mb 0.00 in0.0 mm 0.00 in0.0 mm 0.01 in0.3 mm
11:40 PM 52.2°F11.2°C 46.5°F8.1°C 81% Calm Calm -- 29.74 in1007.1 mb 0.00 in0.0 mm 0.00 in0.0 mm 0.01 in0.3 mm
11:50 PM 51.8°F11.0°C 46.5°F8.1°C 82% Calm Calm -- 29.73 in1006.8 mb 0.00 in0.0 mm 0.00 in0.0 mm 0.01 in0.3 mm